createdAt,value
2018-04-24T00:02:25.290Z,80.23
2018-04-24T00:04:51.218Z,80.16
2018-04-24T00:07:17.186Z,80.09
2018-04-24T00:09:45.417Z,79.57
2018-04-24T00:12:11.337Z,81.50
2018-04-24T00:14:40.834Z,82.02
2018-04-24T00:17:06.828Z,81.06
2018-04-24T00:19:36.559Z,80.49
2018-04-24T00:22:02.497Z,79.84
2018-04-24T00:24:29.658Z,80.98
2018-04-24T00:26:55.576Z,81.21
2018-04-24T00:29:24.059Z,80.62
2018-04-24T00:31:49.952Z,82.25
2018-04-24T00:34:19.707Z,82.38
2018-04-24T00:36:45.594Z,81.65
2018-04-24T00:39:11.510Z,80.59
2018-04-24T00:41:37.409Z,82.30
2018-04-24T00:44:03.348Z,80.93
2018-04-24T00:46:32.654Z,81.33
2018-04-24T00:48:58.543Z,82.06
2018-04-24T00:51:25.559Z,81.95
2018-04-24T00:53:51.491Z,81.32
2018-04-24T00:56:20.757Z,80.67
2018-04-24T00:58:46.728Z,80.68
2018-04-24T01:01:15.794Z,81.15
2018-04-24T01:03:41.711Z,81.25
2018-04-24T01:06:09.621Z,81.14
2018-04-24T01:08:35.511Z,81.73
2018-04-24T01:11:05.008Z,81.16
2018-04-24T01:13:30.882Z,80.76
2018-04-24T01:15:56.782Z,81.10
2018-04-24T01:18:22.763Z,81.44
2018-04-24T01:20:48.697Z,80.79
2018-04-24T01:23:16.063Z,80.13
2018-04-24T01:25:41.949Z,80.93
2018-04-24T01:28:10.850Z,81.37
2018-04-24T01:30:36.758Z,80.86
2018-04-24T01:33:07.033Z,81.63
2018-04-24T01:35:32.931Z,82.27
2018-04-24T01:38:00.077Z,82.05
2018-04-24T01:40:25.987Z,82.96
2018-04-24T01:42:54.931Z,83.27
2018-04-24T01:45:20.818Z,83.52
2018-04-24T01:47:51.174Z,83.15
2018-04-24T01:50:17.083Z,82.96
2018-04-24T01:52:42.987Z,82.56
2018-04-24T01:55:08.859Z,82.06
2018-04-24T01:57:34.927Z,82.28
2018-04-24T02:00:01.381Z,82.44
2018-04-24T02:02:27.249Z,84.09
2018-04-24T02:04:55.957Z,82.75
2018-04-24T02:07:21.851Z,82.80
2018-04-24T02:09:50.751Z,82.11
2018-04-24T02:12:16.610Z,81.48
2018-04-24T02:14:46.297Z,81.28
2018-04-24T02:17:12.487Z,82.17
2018-04-24T02:19:40.228Z,82.47
2018-04-24T02:22:06.089Z,82.28
2018-04-24T02:38:56.206Z,82.32
2018-04-24T02:41:22.104Z,83.02
2018-04-24T02:43:48.010Z,83.39
2018-04-24T02:46:13.933Z,83.02
2018-04-24T02:48:39.807Z,83.05
2018-04-24T02:51:05.675Z,82.56
2018-04-24T02:53:31.592Z,83.44
2018-04-24T02:55:57.487Z,83.92
2018-04-24T02:58:23.400Z,84.17
2018-04-24T03:00:49.289Z,83.87
2018-04-24T03:03:15.175Z,82.41
2018-04-24T03:05:41.045Z,83.50
2018-04-24T03:08:06.922Z,84.22
2018-04-24T03:10:32.828Z,82.89
2018-04-24T03:12:58.713Z,82.57
2018-04-24T03:15:24.665Z,83.18
2018-04-24T03:17:50.547Z,83.21
2018-04-24T03:20:16.457Z,84.12
2018-04-24T03:22:42.360Z,83.13
2018-04-24T03:25:08.253Z,82.94
2018-04-24T03:27:34.170Z,81.48
2018-04-24T03:30:00.051Z,81.46
2018-04-24T03:32:25.951Z,81.48
2018-04-24T03:34:51.857Z,81.95
2018-04-24T03:37:17.792Z,81.79
2018-04-24T03:39:43.699Z,81.13
2018-04-24T03:42:09.579Z,80.82
2018-04-24T03:44:35.501Z,80.93
2018-04-24T03:47:01.362Z,81.17
2018-04-24T03:49:27.278Z,81.20
2018-04-24T03:51:53.144Z,81.46
2018-04-24T03:54:19.055Z,81.20
2018-04-24T03:56:44.939Z,81.43
2018-04-24T03:59:10.895Z,82.06
2018-04-24T04:01:36.788Z,81.34
2018-04-24T04:04:02.704Z,81.68
2018-04-24T04:06:28.622Z,81.52
2018-04-24T04:08:54.522Z,80.88
2018-04-24T04:11:20.440Z,81.31
2018-04-24T04:13:46.311Z,81.66
2018-04-24T04:16:12.221Z,83.50
2018-04-24T04:21:52.423Z,83.07
2018-04-24T04:27:18.126Z,83.85
2018-04-24T04:29:43.996Z,82.93
2018-04-24T04:32:09.880Z,82.93
2018-04-24T04:34:35.787Z,82.81
2018-04-24T04:37:01.698Z,82.47
2018-04-24T04:39:27.584Z,82.54
2018-04-24T04:41:53.455Z,84.04
2018-04-24T04:44:19.377Z,84.35
2018-04-24T04:46:45.248Z,82.52
2018-04-24T04:49:11.171Z,82.07
2018-04-24T04:51:37.068Z,83.65
2018-04-24T04:54:02.980Z,82.97
2018-04-24T04:56:28.915Z,82.53
2018-04-24T04:58:54.822Z,80.35
2018-04-24T05:01:20.723Z,80.00
2018-04-24T05:03:48.511Z,82.88
2018-04-24T05:06:14.455Z,83.22
2018-04-24T05:08:43.029Z,83.48
2018-04-24T05:11:08.982Z,83.41
2018-04-24T05:13:38.856Z,81.21
2018-04-24T05:16:04.750Z,79.69
2018-04-24T05:18:31.948Z,80.13
2018-04-24T05:20:57.839Z,81.40
2018-04-24T05:23:26.736Z,82.32
2018-04-24T05:25:52.676Z,84.24
2018-04-24T05:28:21.762Z,84.92
2018-04-24T05:30:47.668Z,84.55
2018-04-24T05:33:13.573Z,84.55
2018-04-24T05:35:39.432Z,83.93
2018-04-24T05:38:05.329Z,83.48
2018-04-24T05:40:34.698Z,82.43
2018-04-24T05:43:00.581Z,81.91
2018-04-24T05:45:29.675Z,81.64
2018-04-24T05:47:55.576Z,80.79
2018-04-24T05:50:22.600Z,80.32
2018-04-24T05:52:48.510Z,80.67
2018-04-24T05:55:18.127Z,79.83
2018-04-24T05:57:44.117Z,78.72
2018-04-24T06:00:11.897Z,77.79
2018-04-24T06:02:37.791Z,77.27
2018-04-24T06:05:06.528Z,78.01
2018-04-24T06:07:32.411Z,77.39
2018-04-24T06:09:58.366Z,76.70
2018-04-24T06:12:24.252Z,75.04
2018-04-24T06:14:51.065Z,74.73
2018-04-24T06:17:18.662Z,74.98
2018-04-24T06:19:44.595Z,74.67
2018-04-24T06:22:14.029Z,74.52
2018-04-24T06:24:39.942Z,74.35
2018-04-24T06:27:09.466Z,73.63
2018-04-24T06:29:35.337Z,74.12
2018-04-24T06:32:03.147Z,73.75
2018-04-24T06:34:29.050Z,73.13
2018-04-24T06:36:58.254Z,74.07
2018-04-24T06:39:24.179Z,75.38
2018-04-24T06:41:52.562Z,75.56
2018-04-24T06:44:18.479Z,74.97
2018-04-24T06:46:44.371Z,75.38
2018-04-24T06:49:10.275Z,75.93
2018-04-24T06:51:36.200Z,76.61
2018-04-24T06:54:05.364Z,75.96
2018-04-24T06:56:31.223Z,75.58
2018-04-24T06:59:00.340Z,74.43
2018-04-24T07:01:26.297Z,74.01
2018-04-24T07:03:53.343Z,73.14
2018-04-24T07:06:19.224Z,71.93
2018-04-24T07:08:48.743Z,71.93
2018-04-24T07:11:14.599Z,69.29
2018-04-24T07:13:42.415Z,69.28
2018-04-24T07:16:08.345Z,68.12
2018-04-24T07:18:37.440Z,67.06
2018-04-24T07:21:03.361Z,64.83
2018-04-24T07:23:29.299Z,61.04
2018-04-24T07:25:55.173Z,62.28
2018-04-24T07:28:21.060Z,59.63
2018-04-24T07:30:50.219Z,57.61
2018-04-24T07:33:16.110Z,60.09
2018-04-24T07:35:45.523Z,58.40
2018-04-24T07:38:11.418Z,56.65
2018-04-24T07:40:38.936Z,55.42
2018-04-24T07:43:04.863Z,56.34
2018-04-24T07:45:33.902Z,58.70
2018-04-24T07:47:59.799Z,60.05
2018-04-24T07:50:29.501Z,59.93
2018-04-24T07:52:55.399Z,57.72
2018-04-24T07:55:22.811Z,57.16
2018-04-24T07:57:48.713Z,57.90
2018-04-24T08:00:14.630Z,59.46
2018-04-24T08:02:40.511Z,60.78
2018-04-24T08:05:06.464Z,60.82
2018-04-24T08:07:34.347Z,60.24
2018-04-24T08:10:00.211Z,60.47
2018-04-24T08:12:29.239Z,61.21
2018-04-24T08:14:55.140Z,61.46
2018-04-24T08:17:24.386Z,60.94
2018-04-24T08:19:50.279Z,59.92
2018-04-24T08:22:19.474Z,58.27
2018-04-24T08:24:45.399Z,60.14
2018-04-24T08:27:14.938Z,59.65
2018-04-24T08:29:40.848Z,59.09
2018-04-24T08:32:08.322Z,57.79
2018-04-24T08:34:34.231Z,57.75
2018-04-24T08:37:00.135Z,56.67
2018-04-24T08:39:26.021Z,56.23
2018-04-24T08:41:51.915Z,56.83
2018-04-24T08:44:21.364Z,55.46
2018-04-24T08:46:47.303Z,55.05
2018-04-24T08:49:14.729Z,53.71
2018-04-24T08:51:40.629Z,53.46
2018-04-24T08:54:09.063Z,52.63
2018-04-24T08:56:35.021Z,50.98
2018-04-24T08:59:04.875Z,48.23
2018-04-24T09:01:30.857Z,46.82
2018-04-24T09:03:58.329Z,47.50
2018-04-24T09:06:24.241Z,47.47
2018-04-24T09:08:53.150Z,48.00
2018-04-24T09:11:19.055Z,48.79
2018-04-24T09:13:44.889Z,46.26
2018-04-24T09:16:10.780Z,45.82
2018-04-24T09:18:36.656Z,45.42
2018-04-24T09:21:06.440Z,46.52
2018-04-24T09:23:32.336Z,47.02
2018-04-24T09:25:59.502Z,46.06
2018-04-24T09:28:25.375Z,46.67
2018-04-24T09:30:54.515Z,46.58
2018-04-24T09:33:20.440Z,47.43
2018-04-24T09:35:49.676Z,47.06
2018-04-24T09:38:15.588Z,47.03
2018-04-24T09:40:43.822Z,46.41
2018-04-24T09:43:09.727Z,44.90
2018-04-24T09:45:39.158Z,46.08
2018-04-24T09:48:05.088Z,44.10
2018-04-24T09:50:30.992Z,44.08
2018-04-24T09:52:56.902Z,46.15
2018-04-24T09:55:22.784Z,45.38
2018-04-24T09:57:50.278Z,45.00
2018-04-24T10:00:22.394Z,43.26
2018-04-24T10:02:48.307Z,44.26
2018-04-24T10:05:14.215Z,43.12
2018-04-24T10:07:40.101Z,40.80
2018-04-24T10:10:06.036Z,42.41
2018-04-24T10:12:35.926Z,43.54
2018-04-24T10:15:01.829Z,41.31
2018-04-24T10:17:29.081Z,43.53
2018-04-24T10:19:54.998Z,40.30
2018-04-24T10:22:24.501Z,42.64
2018-04-24T10:24:50.398Z,41.17
2018-04-24T10:27:16.275Z,39.30
2018-04-24T10:29:42.199Z,39.41
2018-04-24T10:32:08.126Z,37.92
2018-04-24T10:34:37.347Z,37.46
2018-04-24T10:37:03.285Z,37.66
2018-04-24T10:39:30.580Z,39.58
2018-04-24T10:41:56.519Z,39.67
2018-04-24T10:44:25.968Z,38.62
2018-04-24T10:46:51.859Z,39.03
2018-04-24T10:49:21.048Z,37.94
2018-04-24T10:51:47.021Z,37.68
2018-04-24T10:54:16.066Z,42.00
2018-04-24T10:56:41.975Z,40.30
2018-04-24T10:59:09.071Z,38.36
2018-04-24T11:01:34.990Z,38.39
2018-04-24T11:04:00.915Z,39.26
2018-04-24T11:06:26.784Z,37.47
2018-04-24T11:08:52.687Z,38.63
2018-04-24T11:11:22.634Z,35.34
2018-04-24T11:13:48.537Z,36.75
2018-04-24T11:16:16.168Z,35.81
2018-04-24T11:18:42.085Z,36.89
2018-04-24T11:21:11.165Z,37.98
2018-04-24T11:23:37.080Z,40.15
2018-04-24T11:26:04.910Z,38.56
2018-04-24T11:28:30.791Z,37.38
2018-04-24T11:30:59.583Z,37.50
2018-04-24T11:33:25.441Z,37.44
2018-04-24T11:35:54.252Z,37.43
2018-04-24T11:38:20.071Z,34.87
2018-04-24T11:40:46.001Z,36.41
2018-04-24T11:43:11.870Z,35.71
2018-04-24T11:45:37.714Z,37.44
2018-04-24T11:48:06.697Z,37.66
2018-04-24T11:50:32.580Z,38.01
2018-04-24T11:53:01.567Z,37.00
2018-04-24T11:55:27.453Z,38.22
2018-04-24T11:57:55.819Z,36.00
2018-04-24T12:00:21.768Z,39.46
2018-04-24T12:02:51.489Z,40.68
2018-04-24T12:05:17.363Z,40.31
2018-04-24T12:07:46.583Z,40.70
2018-04-24T12:10:12.467Z,38.85
2018-04-24T12:12:41.338Z,40.84
2018-04-24T12:15:07.231Z,41.62
2018-04-24T12:17:33.149Z,39.49
2018-04-24T12:19:59.083Z,38.62
2018-04-24T12:22:24.991Z,38.77
2018-04-24T12:24:51.279Z,38.38
2018-04-24T12:27:17.146Z,37.64
2018-04-24T12:29:45.875Z,36.43
2018-04-24T12:32:11.760Z,38.10
2018-04-24T12:34:40.602Z,37.98
2018-04-24T12:37:06.528Z,37.60
2018-04-24T12:39:35.329Z,39.13
2018-04-24T12:42:01.208Z,39.10
2018-04-24T12:44:29.859Z,39.68
2018-04-24T12:46:55.779Z,38.98
2018-04-24T12:49:24.701Z,37.92
2018-04-24T12:51:50.627Z,39.04
2018-04-24T12:54:16.548Z,40.27
2018-04-24T12:56:42.427Z,40.30
2018-04-24T12:59:08.385Z,40.33
2018-04-24T13:01:37.440Z,38.76
2018-04-24T13:04:03.305Z,38.68
2018-04-24T13:06:31.679Z,39.09
2018-04-24T13:08:57.558Z,38.33
2018-04-24T13:11:26.952Z,38.26
2018-04-24T13:13:52.880Z,37.71
2018-04-24T13:16:22.203Z,37.25
2018-04-24T13:18:48.117Z,37.28
2018-04-24T13:21:17.179Z,36.98
2018-04-24T13:23:43.083Z,35.80
2018-04-24T13:26:12.029Z,35.62
2018-04-24T13:28:37.887Z,35.20
2018-04-24T13:31:03.784Z,35.01
2018-04-24T13:33:29.677Z,36.21
2018-04-24T13:35:55.564Z,36.97
2018-04-24T13:38:22.513Z,35.75
2018-04-24T13:40:48.431Z,36.52
2018-04-24T13:43:17.504Z,37.32
2018-04-24T13:45:43.442Z,37.91
2018-04-24T13:48:11.248Z,38.39
2018-04-24T13:50:37.137Z,38.59
2018-04-24T13:53:05.891Z,37.83
2018-04-24T13:55:31.845Z,35.27
2018-04-24T13:58:00.636Z,36.80
2018-04-24T14:00:26.594Z,36.75
2018-04-24T14:02:55.354Z,36.42
2018-04-24T14:05:21.208Z,34.55
2018-04-24T14:07:47.121Z,35.76
2018-04-24T14:10:13.014Z,35.55
2018-04-24T14:12:38.898Z,35.88
2018-04-24T14:15:08.384Z,36.54
2018-04-24T14:17:34.266Z,35.89
2018-04-24T14:20:03.869Z,35.93
2018-04-24T14:22:29.735Z,35.29
2018-04-24T14:24:57.187Z,34.64
2018-04-24T14:27:23.085Z,35.08
2018-04-24T14:29:52.312Z,34.57
2018-04-24T14:32:18.211Z,35.46
2018-04-24T14:34:46.320Z,35.97
2018-04-24T14:37:12.176Z,36.48
2018-04-24T14:39:41.375Z,36.47
2018-04-24T14:42:07.257Z,35.90
2018-04-24T14:44:33.187Z,34.26
2018-04-24T14:46:59.080Z,33.52
2018-04-24T14:49:24.991Z,33.68
2018-04-24T14:51:54.341Z,33.96
2018-04-24T14:54:20.243Z,34.78
2018-04-24T14:56:47.505Z,35.59
2018-04-24T14:59:13.451Z,35.22
2018-04-24T15:01:43.023Z,35.00
2018-04-24T15:04:08.939Z,32.56
2018-04-24T15:06:41.298Z,31.70
2018-04-24T15:09:07.467Z,31.46
2018-04-24T15:11:33.384Z,31.08
2018-04-24T15:13:59.327Z,31.07
2018-04-24T15:16:26.453Z,31.38
2018-04-24T15:18:52.385Z,31.81
2018-04-24T15:21:18.234Z,31.28
2018-04-24T15:23:44.101Z,30.91
2018-04-24T15:26:10.005Z,30.88
2018-04-24T15:28:39.482Z,30.08
2018-04-24T15:31:05.484Z,30.07
2018-04-24T15:33:32.554Z,30.42
2018-04-24T15:35:58.444Z,31.04
2018-04-24T15:38:27.132Z,31.79
2018-04-24T15:40:53.053Z,31.11
2018-04-24T15:43:21.779Z,29.77
2018-04-24T15:45:47.844Z,29.99
2018-04-24T15:48:16.573Z,30.70
2018-04-24T15:50:42.503Z,31.15
2018-04-24T15:53:12.123Z,30.14
2018-04-24T15:55:38.027Z,30.96
2018-04-24T15:58:03.975Z,32.19
2018-04-24T16:00:29.923Z,32.55
2018-04-24T16:02:55.856Z,32.23
2018-04-24T16:05:23.707Z,32.61
2018-04-24T16:07:49.934Z,32.97
2018-04-24T16:10:18.875Z,33.89
2018-04-24T16:12:44.793Z,34.57
2018-04-24T16:15:12.849Z,33.86
2018-04-24T16:17:39.168Z,33.21
2018-04-24T16:20:08.287Z,33.80
2018-04-24T16:22:34.188Z,34.84
2018-04-24T16:25:03.483Z,35.75
2018-04-24T16:27:29.336Z,35.53
2018-04-24T16:29:56.740Z,35.50
2018-04-24T16:32:22.608Z,35.35
2018-04-24T16:34:48.471Z,37.43
2018-04-24T16:37:14.388Z,37.96
2018-04-24T16:39:40.323Z,38.46
2018-04-24T16:42:09.621Z,39.04
2018-04-24T16:44:35.469Z,39.07
2018-04-24T16:47:05.087Z,38.86
2018-04-24T16:49:30.976Z,38.22
2018-04-24T16:51:58.534Z,39.20
2018-04-24T16:54:24.700Z,39.32
2018-04-24T16:56:54.487Z,39.19
2018-04-24T16:59:20.334Z,39.84
2018-04-24T17:01:47.702Z,40.71
2018-04-24T17:04:13.614Z,41.70
2018-04-24T17:06:43.094Z,42.17
2018-04-24T17:09:09.048Z,43.14
2018-04-24T17:11:34.943Z,42.77
2018-04-24T17:14:00.821Z,42.43
2018-04-24T17:16:26.739Z,42.91
2018-04-24T17:18:54.143Z,43.74
2018-04-24T17:21:20.082Z,45.00
2018-04-24T17:23:49.691Z,44.46
2018-04-24T17:26:15.543Z,45.13
2018-04-24T17:28:43.296Z,45.96
2018-04-24T17:31:09.180Z,45.65
2018-04-24T17:33:39.091Z,45.63
2018-04-24T17:36:04.945Z,46.27
2018-04-24T17:38:32.579Z,46.45
2018-04-24T17:40:58.502Z,47.04
2018-04-24T17:43:27.392Z,47.42
2018-04-24T17:45:53.291Z,47.44
2018-04-24T17:48:19.155Z,47.67
2018-04-24T17:50:45.054Z,47.88
2018-04-24T17:53:10.967Z,48.10
2018-04-24T17:55:40.137Z,49.27
2018-04-24T17:58:06.039Z,49.65
2018-04-24T18:00:35.271Z,49.51
2018-04-24T18:03:01.188Z,49.73
2018-04-24T18:05:28.857Z,49.83
2018-04-24T18:07:54.953Z,50.36
2018-04-24T18:10:23.900Z,50.29
2018-04-24T18:12:49.796Z,50.96
2018-04-24T18:15:18.871Z,51.44
2018-04-24T18:17:44.787Z,51.34
2018-04-24T18:20:13.691Z,50.87
2018-04-24T18:22:39.557Z,51.67
2018-04-24T18:25:05.460Z,52.17
2018-04-24T18:27:31.337Z,52.98
2018-04-24T18:29:57.259Z,53.50
2018-04-24T18:32:26.428Z,53.08
2018-04-24T18:34:52.323Z,53.22
2018-04-24T18:37:19.858Z,53.84
2018-04-24T18:39:45.806Z,53.95
2018-04-24T18:42:15.194Z,54.21
2018-04-24T18:44:41.388Z,55.05
2018-04-24T18:47:08.636Z,55.33
2018-04-24T18:49:34.604Z,54.98
2018-04-24T18:52:04.319Z,55.19
2018-04-24T18:54:30.231Z,54.87
2018-04-24T18:56:58.226Z,55.70
2018-04-24T18:59:24.196Z,55.91
2018-04-24T19:01:50.112Z,55.92
2018-04-24T19:04:16.035Z,56.50
2018-04-24T19:06:42.239Z,56.51
2018-04-24T19:09:11.302Z,56.70
2018-04-24T19:11:37.195Z,57.14
2018-04-24T19:16:57.852Z,57.59
2018-04-24T19:19:25.657Z,58.00
2018-04-24T19:21:51.861Z,58.05
2018-04-24T19:24:23.969Z,58.36
2018-04-24T19:26:49.893Z,58.44
2018-04-24T19:29:15.760Z,58.73
2018-04-24T19:31:47.823Z,58.91
2018-04-24T19:34:13.724Z,59.13
2018-04-24T19:36:39.718Z,59.33
2018-04-24T19:39:11.718Z,59.24
2018-04-24T19:41:43.790Z,59.62
2018-04-24T19:44:09.670Z,60.15
2018-04-24T19:46:35.569Z,60.42
2018-04-24T19:52:01.296Z,60.94
2018-04-24T19:54:27.225Z,61.74
2018-04-24T19:56:56.770Z,62.70
2018-04-24T19:59:22.640Z,63.28
2018-04-24T20:01:50.587Z,63.85
2018-04-24T20:04:16.498Z,63.75
2018-04-24T20:06:46.138Z,63.87
2018-04-24T20:09:12.090Z,63.85
2018-04-24T20:11:39.588Z,63.94
2018-04-24T20:14:05.512Z,63.72
2018-04-24T20:16:34.472Z,63.63
2018-04-24T20:19:00.436Z,63.57
2018-04-24T20:21:29.809Z,63.59
2018-04-24T20:23:55.770Z,63.73
2018-04-24T20:26:25.640Z,64.05
2018-04-24T20:28:51.533Z,64.04
2018-04-24T20:31:17.422Z,64.14
2018-04-24T20:33:43.360Z,64.32
2018-04-24T20:36:09.236Z,64.48
2018-04-24T20:38:35.848Z,64.66
2018-04-24T20:41:01.743Z,64.80
2018-04-24T20:43:30.324Z,64.83
2018-04-24T20:45:56.237Z,64.92
2018-04-24T20:48:25.279Z,64.89
2018-04-24T20:50:51.188Z,64.89
2018-04-24T20:53:20.876Z,65.21
2018-04-24T20:55:46.723Z,65.39
2018-04-24T20:58:14.685Z,65.52
2018-04-24T21:00:40.585Z,65.45
2018-04-24T21:03:09.386Z,65.71
2018-04-24T21:05:35.253Z,65.98
2018-04-24T21:08:01.132Z,66.18
2018-04-24T21:10:27.015Z,66.42
2018-04-24T21:12:52.937Z,66.55
2018-04-24T21:15:20.885Z,66.53
2018-04-24T21:17:46.824Z,66.81
2018-04-24T21:20:15.856Z,67.04
2018-04-24T21:22:41.728Z,66.94
2018-04-24T21:25:10.754Z,66.90
2018-04-24T21:27:36.688Z,67.13
2018-04-24T21:30:05.558Z,67.14
2018-04-24T21:32:31.507Z,67.54
2018-04-24T21:35:01.420Z,67.22
2018-04-24T21:37:27.240Z,67.73
2018-04-24T21:39:56.155Z,67.40
2018-04-24T21:42:22.082Z,67.75
2018-04-24T21:44:48.012Z,67.82
2018-04-24T21:47:13.886Z,67.92
2018-04-24T21:49:39.808Z,68.08
2018-04-24T21:52:06.328Z,68.39
2018-04-24T21:54:32.188Z,68.39
2018-04-24T21:57:01.187Z,68.30
2018-04-24T21:59:27.102Z,68.23
2018-04-24T22:01:56.807Z,68.26
2018-04-24T22:04:22.780Z,68.69
2018-04-24T22:06:50.206Z,68.99
2018-04-24T22:09:16.093Z,69.23
2018-04-24T22:11:45.275Z,68.97
2018-04-24T22:14:11.234Z,68.73
2018-04-24T22:16:40.407Z,68.90
2018-04-24T22:19:06.315Z,69.28
2018-04-24T22:21:32.195Z,68.88
2018-04-24T22:23:58.095Z,68.99
2018-04-24T22:26:23.996Z,69.31
2018-04-24T22:28:53.195Z,69.46
2018-04-24T22:31:19.096Z,69.53
2018-04-24T22:33:47.041Z,69.69
2018-04-24T22:36:12.936Z,70.04
2018-04-24T22:38:41.978Z,70.20
2018-04-24T22:41:07.841Z,70.13
2018-04-24T22:43:36.807Z,69.79
2018-04-24T22:46:02.741Z,69.82
2018-04-24T22:48:30.581Z,69.72
2018-04-24T22:50:56.467Z,69.91
2018-04-24T22:53:25.691Z,70.17
2018-04-24T22:55:51.595Z,70.05
2018-04-24T22:58:17.479Z,70.16
2018-04-24T23:00:43.427Z,70.59
2018-04-24T23:03:09.320Z,71.01
2018-04-24T23:05:36.757Z,71.87
2018-04-24T23:08:02.728Z,71.44
2018-04-24T23:10:44.119Z,71.52
2018-04-24T23:13:22.468Z,72.17
2018-04-24T23:16:00.754Z,71.77
2018-04-24T23:18:39.090Z,70.28
2018-04-24T23:21:04.879Z,70.86
2018-04-24T23:23:30.753Z,71.93
2018-04-24T23:25:56.624Z,72.41
2018-04-24T23:28:22.564Z,73.55
2018-04-24T23:30:48.434Z,73.69
2018-04-24T23:33:14.364Z,72.83
2018-04-24T23:35:40.252Z,72.26
2018-04-24T23:38:06.163Z,71.90
2018-04-24T23:40:32.049Z,71.73
2018-04-24T23:42:57.969Z,71.78
2018-04-24T23:45:23.915Z,71.43
2018-04-24T23:47:49.851Z,71.29
2018-04-24T23:50:15.739Z,71.56
2018-04-24T23:52:41.645Z,71.84
2018-04-24T23:55:07.526Z,71.92
2018-04-24T23:57:33.431Z,71.78
2018-04-24T23:59:59.344Z,71.61
